sensor_id;sensor_type;location;lat;lon;timestamp;temperature;humidity
21123;DHT22;10719;48.130;11.630;2023-07-20T00:01:28;21.80;99.90
21123;DHT22;10719;48.130;11.630;2023-07-20T00:03:54;21.70;99.90
21123;DHT22;10719;48.130;11.630;2023-07-20T00:06:23;21.70;99.90
21123;DHT22;10719;48.130;11.630;2023-07-20T00:08:50;21.60;99.90
21123;DHT22;10719;48.130;11.630;2023-07-20T00:11:16;21.60;99.90
21123;DHT22;10719;48.130;11.630;2023-07-20T00:13:41;21.50;99.90
21123;DHT22;10719;48.130;11.630;2023-07-20T00:16:07;21.40;99.90
21123;DHT22;10719;48.130;11.630;2023-07-20T00:18:33;21.40;99.90
21123;DHT22;10719;48.130;11.630;2023-07-20T00:20:58;21.40;99.90
21123;DHT22;10719;48.130;11.630;2023-07-20T00:23:25;21.30;99.90
21123;DHT22;10719;48.130;11.630;2023-07-20T00:25:51;21.30;99.90
21123;DHT22;10719;48.130;11.630;2023-07-20T00:28:17;21.30;99.90
21123;DHT22;10719;48.130;11.630;2023-07-20T00:30:42;21.20;99.90
21123;DHT22;10719;48.130;11.630;2023-07-20T00:33:10;21.20;99.90
21123;DHT22;10719;48.130;11.630;2023-07-20T00:35:36;21.20;99.90
21123;DHT22;10719;48.130;11.630;2023-07-20T00:38:03;21.10;99.90
21123;DHT22;10719;48.130;11.630;2023-07-20T00:40:35;21.10;99.90
21123;DHT22;10719;48.130;11.630;2023-07-20T00:43:00;21.10;99.90
21123;DHT22;10719;48.130;11.630;2023-07-20T00:45:26;21.10;99.90
21123;DHT22;10719;48.130;11.630;2023-07-20T00:47:52;21.10;99.90
21123;DHT22;10719;48.130;11.630;2023-07-20T00:50:18;21.10;99.90
21123;DHT22;10719;48.130;11.630;2023-07-20T00:52:43;21.20;99.90
21123;DHT22;10719;48.130;11.630;2023-07-20T00:55:09;21.20;99.90
21123;DHT22;10719;48.130;11.630;2023-07-20T00:57:35;21.20;99.90
21123;DHT22;10719;48.130;11.630;2023-07-20T01:00:01;21.10;99.90
21123;DHT22;10719;48.130;11.630;2023-07-20T01:02:27;21.20;99.90
21123;DHT22;10719;48.130;11.630;2023-07-20T01:04:52;21.20;99.90
21123;DHT22;10719;48.130;11.630;2023-07-20T01:07:32;21.20;99.90
21123;DHT22;10719;48.130;11.630;2023-07-20T01:10:09;21.20;99.90
21123;DHT22;10719;48.130;11.630;2023-07-20T01:12:40;21.20;99.90
21123;DHT22;10719;48.130;11.630;2023-07-20T01:15:06;21.10;99.90
21123;DHT22;10719;48.130;11.630;2023-07-20T01:17:34;21.10;99.90
21123;DHT22;10719;48.130;11.630;2023-07-20T01:19:59;21.10;99.90
21123;DHT22;10719;48.130;11.630;2023-07-20T01:22:59;21.10;99.90
21123;DHT22;10719;48.130;11.630;2023-07-20T01:31:20;21.00;99.90
21123;DHT22;10719;48.130;11.630;2023-07-20T01:33:48;21.00;99.90
21123;DHT22;10719;48.130;11.630;2023-07-20T01:36:16;21.00;99.90
21123;DHT22;10719;48.130;11.630;2023-07-20T01:38:43;21.00;99.90
21123;DHT22;10719;48.130;11.630;2023-07-20T01:41:10;21.00;99.90
21123;DHT22;10719;48.130;11.630;2023-07-20T01:43:36;21.00;99.90
21123;DHT22;10719;48.130;11.630;2023-07-20T01:46:02;20.90;99.90
21123;DHT22;10719;48.130;11.630;2023-07-20T01:48:28;20.90;99.90
21123;DHT22;10719;48.130;11.630;2023-07-20T01:50:53;20.90;99.90
21123;DHT22;10719;48.130;11.630;2023-07-20T01:53:20;20.90;99.90
21123;DHT22;10719;48.130;11.630;2023-07-20T01:55:46;20.90;99.90
21123;DHT22;10719;48.130;11.630;2023-07-20T01:58:12;20.80;99.90
21123;DHT22;10719;48.130;11.630;2023-07-20T02:00:37;20.90;99.90
21123;DHT22;10719;48.130;11.630;2023-07-20T02:03:04;20.90;99.90
21123;DHT22;10719;48.130;11.630;2023-07-20T02:05:29;20.90;99.90
21123;DHT22;10719;48.130;11.630;2023-07-20T02:07:55;20.90;99.90
21123;DHT22;10719;48.130;11.630;2023-07-20T02:10:20;20.90;99.90
21123;DHT22;10719;48.130;11.630;2023-07-20T02:12:46;20.80;99.90
21123;DHT22;10719;48.130;11.630;2023-07-20T02:15:13;20.90;99.90
21123;DHT22;10719;48.130;11.630;2023-07-20T02:17:40;20.80;99.90
21123;DHT22;10719;48.130;11.630;2023-07-20T02:20:07;20.80;99.90
21123;DHT22;10719;48.130;11.630;2023-07-20T02:22:37;20.80;99.90
21123;DHT22;10719;48.130;11.630;2023-07-20T02:25:04;20.60;99.90
21123;DHT22;10719;48.130;11.630;2023-07-20T02:27:30;20.60;99.90
21123;DHT22;10719;48.130;11.630;2023-07-20T02:29:56;20.50;99.90
21123;DHT22;10719;48.130;11.630;2023-07-20T02:32:21;20.50;99.90
21123;DHT22;10719;48.130;11.630;2023-07-20T02:34:47;20.40;99.90
21123;DHT22;10719;48.130;11.630;2023-07-20T02:37:13;20.40;99.90
21123;DHT22;10719;48.130;11.630;2023-07-20T02:39:39;20.50;99.90
21123;DHT22;10719;48.130;11.630;2023-07-20T02:42:05;20.40;99.90
21123;DHT22;10719;48.130;11.630;2023-07-20T02:44:31;20.40;99.90
21123;DHT22;10719;48.130;11.630;2023-07-20T02:46:56;20.40;99.90
21123;DHT22;10719;48.130;11.630;2023-07-20T02:49:22;20.30;99.90
21123;DHT22;10719;48.130;11.630;2023-07-20T02:51:47;20.20;99.90
21123;DHT22;10719;48.130;11.630;2023-07-20T02:54:13;20.20;99.90
21123;DHT22;10719;48.130;11.630;2023-07-20T02:56:39;20.20;99.90
21123;DHT22;10719;48.130;11.630;2023-07-20T02:59:04;20.20;99.90
21123;DHT22;10719;48.130;11.630;2023-07-20T03:01:30;20.30;99.90
21123;DHT22;10719;48.130;11.630;2023-07-20T03:03:55;20.20;99.90
21123;DHT22;10719;48.130;11.630;2023-07-20T03:06:21;20.10;99.90
21123;DHT22;10719;48.130;11.630;2023-07-20T03:08:47;19.70;99.90
21123;DHT22;10719;48.130;11.630;2023-07-20T03:11:14;19.60;99.90
21123;DHT22;10719;48.130;11.630;2023-07-20T03:13:41;19.30;99.90
21123;DHT22;10719;48.130;11.630;2023-07-20T03:16:08;19.10;99.90
21123;DHT22;10719;48.130;11.630;2023-07-20T03:18:39;18.90;99.90
21123;DHT22;10719;48.130;11.630;2023-07-20T03:21:08;18.70;99.90
21123;DHT22;10719;48.130;11.630;2023-07-20T03:23:37;18.60;99.90
21123;DHT22;10719;48.130;11.630;2023-07-20T03:26:02;18.50;99.90
21123;DHT22;10719;48.130;11.630;2023-07-20T03:28:28;18.50;99.90
21123;DHT22;10719;48.130;11.630;2023-07-20T03:30:54;18.50;99.90
21123;DHT22;10719;48.130;11.630;2023-07-20T03:33:22;18.40;99.90
21123;DHT22;10719;48.130;11.630;2023-07-20T03:35:47;18.40;99.90
21123;DHT22;10719;48.130;11.630;2023-07-20T03:38:13;18.40;99.90
21123;DHT22;10719;48.130;11.630;2023-07-20T03:40:38;18.40;99.90
21123;DHT22;10719;48.130;11.630;2023-07-20T03:43:04;18.20;99.90
21123;DHT22;10719;48.130;11.630;2023-07-20T03:45:29;18.10;99.90
21123;DHT22;10719;48.130;11.630;2023-07-20T03:47:55;18.00;99.90
21123;DHT22;10719;48.130;11.630;2023-07-20T03:50:21;18.00;99.90
21123;DHT22;10719;48.130;11.630;2023-07-20T03:52:47;17.90;99.90
21123;DHT22;10719;48.130;11.630;2023-07-20T03:55:13;17.90;99.90
21123;DHT22;10719;48.130;11.630;2023-07-20T03:57:38;17.90;99.90
21123;DHT22;10719;48.130;11.630;2023-07-20T04:00:04;17.90;99.90
21123;DHT22;10719;48.130;11.630;2023-07-20T04:02:33;17.90;99.90
21123;DHT22;10719;48.130;11.630;2023-07-20T04:04:59;18.00;99.90
21123;DHT22;10719;48.130;11.630;2023-07-20T04:07:25;18.00;99.90
21123;DHT22;10719;48.130;11.630;2023-07-20T04:09:51;18.00;99.90
21123;DHT22;10719;48.130;11.630;2023-07-20T04:12:16;18.00;99.90
21123;DHT22;10719;48.130;11.630;2023-07-20T04:14:42;17.90;99.90
21123;DHT22;10719;48.130;11.630;2023-07-20T04:17:08;18.00;99.90
21123;DHT22;10719;48.130;11.630;2023-07-20T04:19:33;18.00;99.90
21123;DHT22;10719;48.130;11.630;2023-07-20T04:21:59;18.10;99.90
21123;DHT22;10719;48.130;11.630;2023-07-20T04:24:24;18.00;99.90
21123;DHT22;10719;48.130;11.630;2023-07-20T04:26:50;18.00;99.90
21123;DHT22;10719;48.130;11.630;2023-07-20T04:29:15;18.00;99.90
21123;DHT22;10719;48.130;11.630;2023-07-20T04:31:41;18.10;99.90
21123;DHT22;10719;48.130;11.630;2023-07-20T04:34:06;18.00;99.90
21123;DHT22;10719;48.130;11.630;2023-07-20T04:36:32;18.10;99.90
21123;DHT22;10719;48.130;11.630;2023-07-20T04:38:58;18.10;99.90
21123;DHT22;10719;48.130;11.630;2023-07-20T04:41:23;18.10;99.90
21123;DHT22;10719;48.130;11.630;2023-07-20T04:43:50;18.20;99.90
21123;DHT22;10719;48.130;11.630;2023-07-20T04:46:16;18.20;99.90
21123;DHT22;10719;48.130;11.630;2023-07-20T04:48:43;18.20;99.90
21123;DHT22;10719;48.130;11.630;2023-07-20T04:51:09;18.20;99.90
21123;DHT22;10719;48.130;11.630;2023-07-20T04:53:35;18.30;99.90
21123;DHT22;10719;48.130;11.630;2023-07-20T04:56:01;18.40;99.90
21123;DHT22;10719;48.130;11.630;2023-07-20T04:58:26;18.30;99.90
21123;DHT22;10719;48.130;11.630;2023-07-20T05:00:52;18.40;99.90
21123;DHT22;10719;48.130;11.630;2023-07-20T05:03:18;18.40;99.90
21123;DHT22;10719;48.130;11.630;2023-07-20T05:05:43;18.40;99.90
21123;DHT22;10719;48.130;11.630;2023-07-20T05:08:09;18.50;99.90
21123;DHT22;10719;48.130;11.630;2023-07-20T05:10:35;18.60;99.90
21123;DHT22;10719;48.130;11.630;2023-07-20T05:13:00;18.50;99.90
21123;DHT22;10719;48.130;11.630;2023-07-20T05:15:26;18.60;99.90
21123;DHT22;10719;48.130;11.630;2023-07-20T05:17:52;18.60;99.90
21123;DHT22;10719;48.130;11.630;2023-07-20T05:20:17;18.70;99.90
21123;DHT22;10719;48.130;11.630;2023-07-20T05:22:43;18.60;99.90
21123;DHT22;10719;48.130;11.630;2023-07-20T05:25:10;18.70;99.90
21123;DHT22;10719;48.130;11.630;2023-07-20T05:27:39;18.80;99.90
21123;DHT22;10719;48.130;11.630;2023-07-20T05:30:06;18.90;99.90
21123;DHT22;10719;48.130;11.630;2023-07-20T05:32:35;19.00;99.90
21123;DHT22;10719;48.130;11.630;2023-07-20T05:35:01;19.00;99.90
21123;DHT22;10719;48.130;11.630;2023-07-20T05:37:26;19.00;99.90
21123;DHT22;10719;48.130;11.630;2023-07-20T05:39:52;19.00;99.90
21123;DHT22;10719;48.130;11.630;2023-07-20T05:42:18;19.00;99.90
21123;DHT22;10719;48.130;11.630;2023-07-20T05:44:43;19.20;99.90
21123;DHT22;10719;48.130;11.630;2023-07-20T05:47:09;19.20;99.90
21123;DHT22;10719;48.130;11.630;2023-07-20T05:49:35;19.50;99.90
21123;DHT22;10719;48.130;11.630;2023-07-20T05:52:01;19.40;99.90
21123;DHT22;10719;48.130;11.630;2023-07-20T05:54:27;19.40;99.90
21123;DHT22;10719;48.130;11.630;2023-07-20T05:56:54;19.30;99.90
21123;DHT22;10719;48.130;11.630;2023-07-20T05:59:20;19.30;99.90
21123;DHT22;10719;48.130;11.630;2023-07-20T06:01:46;19.40;99.90
21123;DHT22;10719;48.130;11.630;2023-07-20T06:04:14;19.30;99.90
21123;DHT22;10719;48.130;11.630;2023-07-20T06:06:40;19.20;99.90
21123;DHT22;10719;48.130;11.630;2023-07-20T06:09:05;19.20;99.90
21123;DHT22;10719;48.130;11.630;2023-07-20T06:11:35;19.10;99.90
21123;DHT22;10719;48.130;11.630;2023-07-20T06:14:01;19.10;99.90
21123;DHT22;10719;48.130;11.630;2023-07-20T06:16:27;19.10;99.90
21123;DHT22;10719;48.130;11.630;2023-07-20T06:18:52;19.10;99.90
21123;DHT22;10719;48.130;11.630;2023-07-20T06:21:18;19.20;99.90
21123;DHT22;10719;48.130;11.630;2023-07-20T06:23:43;19.30;99.90
21123;DHT22;10719;48.130;11.630;2023-07-20T06:26:09;19.40;99.90
21123;DHT22;10719;48.130;11.630;2023-07-20T06:28:35;19.60;99.90
21123;DHT22;10719;48.130;11.630;2023-07-20T06:31:02;19.60;99.90
21123;DHT22;10719;48.130;11.630;2023-07-20T06:33:27;19.70;99.90
21123;DHT22;10719;48.130;11.630;2023-07-20T06:35:53;19.50;99.90
21123;DHT22;10719;48.130;11.630;2023-07-20T06:38:19;19.60;99.90
21123;DHT22;10719;48.130;11.630;2023-07-20T06:40:48;19.60;99.90
21123;DHT22;10719;48.130;11.630;2023-07-20T06:43:14;19.80;99.90
21123;DHT22;10719;48.130;11.630;2023-07-20T06:45:40;19.80;99.90
21123;DHT22;10719;48.130;11.630;2023-07-20T06:48:06;19.50;99.90
21123;DHT22;10719;48.130;11.630;2023-07-20T06:50:31;19.50;99.90
21123;DHT22;10719;48.130;11.630;2023-07-20T06:52:57;19.60;99.90
21123;DHT22;10719;48.130;11.630;2023-07-20T06:55:24;19.40;99.90
21123;DHT22;10719;48.130;11.630;2023-07-20T06:57:49;19.50;99.90
21123;DHT22;10719;48.130;11.630;2023-07-20T07:00:16;19.30;99.90
21123;DHT22;10719;48.130;11.630;2023-07-20T07:02:41;19.20;99.90
21123;DHT22;10719;48.130;11.630;2023-07-20T07:05:07;19.40;99.90
21123;DHT22;10719;48.130;11.630;2023-07-20T07:07:33;19.70;99.90
21123;DHT22;10719;48.130;11.630;2023-07-20T07:10:01;19.90;99.90
21123;DHT22;10719;48.130;11.630;2023-07-20T07:12:26;20.10;99.90
21123;DHT22;10719;48.130;11.630;2023-07-20T07:14:52;20.10;99.90
21123;DHT22;10719;48.130;11.630;2023-07-20T07:17:19;20.10;99.90
21123;DHT22;10719;48.130;11.630;2023-07-20T07:19:44;19.90;99.90
21123;DHT22;10719;48.130;11.630;2023-07-20T07:22:10;19.90;99.90
21123;DHT22;10719;48.130;11.630;2023-07-20T07:24:37;20.10;99.90
21123;DHT22;10719;48.130;11.630;2023-07-20T07:27:02;20.30;99.90
21123;DHT22;10719;48.130;11.630;2023-07-20T07:29:29;20.20;99.90
21123;DHT22;10719;48.130;11.630;2023-07-20T07:31:55;20.20;99.90
21123;DHT22;10719;48.130;11.630;2023-07-20T07:34:20;20.40;99.90
21123;DHT22;10719;48.130;11.630;2023-07-20T07:36:46;20.40;99.90
21123;DHT22;10719;48.130;11.630;2023-07-20T07:39:12;20.70;99.90
21123;DHT22;10719;48.130;11.630;2023-07-20T07:41:38;20.90;99.90
21123;DHT22;10719;48.130;11.630;2023-07-20T07:44:04;21.00;99.90
21123;DHT22;10719;48.130;11.630;2023-07-20T07:46:30;20.80;99.90
21123;DHT22;10719;48.130;11.630;2023-07-20T07:48:55;20.80;99.90
21123;DHT22;10719;48.130;11.630;2023-07-20T07:51:21;20.90;99.90
21123;DHT22;10719;48.130;11.630;2023-07-20T07:53:47;21.00;99.90
21123;DHT22;10719;48.130;11.630;2023-07-20T07:56:14;21.00;99.90
21123;DHT22;10719;48.130;11.630;2023-07-20T07:58:40;21.00;99.90
21123;DHT22;10719;48.130;11.630;2023-07-20T08:01:06;20.80;99.90
21123;DHT22;10719;48.130;11.630;2023-07-20T08:03:31;21.00;99.90
21123;DHT22;10719;48.130;11.630;2023-07-20T08:05:57;21.00;99.90
21123;DHT22;10719;48.130;11.630;2023-07-20T08:08:24;20.80;99.90
21123;DHT22;10719;48.130;11.630;2023-07-20T08:10:52;20.80;99.90
21123;DHT22;10719;48.130;11.630;2023-07-20T08:13:18;21.10;99.90
21123;DHT22;10719;48.130;11.630;2023-07-20T08:15:49;21.00;99.90
21123;DHT22;10719;48.130;11.630;2023-07-20T08:18:15;21.20;99.90
21123;DHT22;10719;48.130;11.630;2023-07-20T08:20:44;20.90;99.90
21123;DHT22;10719;48.130;11.630;2023-07-20T08:23:09;21.00;99.90
21123;DHT22;10719;48.130;11.630;2023-07-20T08:25:36;20.90;99.90
21123;DHT22;10719;48.130;11.630;2023-07-20T08:28:05;21.20;99.90
21123;DHT22;10719;48.130;11.630;2023-07-20T08:30:40;21.50;99.90
21123;DHT22;10719;48.130;11.630;2023-07-20T08:33:06;21.40;99.90
21123;DHT22;10719;48.130;11.630;2023-07-20T08:35:32;21.50;99.90
21123;DHT22;10719;48.130;11.630;2023-07-20T08:37:57;21.10;99.90
21123;DHT22;10719;48.130;11.630;2023-07-20T08:40:23;21.10;99.90
21123;DHT22;10719;48.130;11.630;2023-07-20T08:42:49;21.10;99.90
21123;DHT22;10719;48.130;11.630;2023-07-20T08:45:16;21.20;99.90
21123;DHT22;10719;48.130;11.630;2023-07-20T08:47:43;21.50;99.90
21123;DHT22;10719;48.130;11.630;2023-07-20T08:50:11;21.40;99.90
21123;DHT22;10719;48.130;11.630;2023-07-20T08:52:38;21.30;99.90
21123;DHT22;10719;48.130;11.630;2023-07-20T08:55:04;21.00;99.90
21123;DHT22;10719;48.130;11.630;2023-07-20T08:57:33;21.40;99.90
21123;DHT22;10719;48.130;11.630;2023-07-20T09:00:02;21.20;99.90
21123;DHT22;10719;48.130;11.630;2023-07-20T09:02:32;21.00;99.90
21123;DHT22;10719;48.130;11.630;2023-07-20T09:04:59;21.10;99.90
21123;DHT22;10719;48.130;11.630;2023-07-20T09:07:25;21.50;99.90
21123;DHT22;10719;48.130;11.630;2023-07-20T09:09:51;21.70;99.90
21123;DHT22;10719;48.130;11.630;2023-07-20T09:12:16;21.90;99.90
21123;DHT22;10719;48.130;11.630;2023-07-20T09:14:45;22.10;99.90
21123;DHT22;10719;48.130;11.630;2023-07-20T09:17:14;22.30;99.90
21123;DHT22;10719;48.130;11.630;2023-07-20T09:19:47;22.20;99.90
21123;DHT22;10719;48.130;11.630;2023-07-20T09:22:13;22.20;99.90
21123;DHT22;10719;48.130;11.630;2023-07-20T09:24:39;22.20;99.90
21123;DHT22;10719;48.130;11.630;2023-07-20T09:27:06;22.30;99.90
21123;DHT22;10719;48.130;11.630;2023-07-20T09:29:32;22.10;99.90
21123;DHT22;10719;48.130;11.630;2023-07-20T09:31:59;22.10;99.90
21123;DHT22;10719;48.130;11.630;2023-07-20T09:34:26;22.30;99.90
21123;DHT22;10719;48.130;11.630;2023-07-20T09:36:52;22.30;99.90
21123;DHT22;10719;48.130;11.630;2023-07-20T09:39:18;22.50;99.90
21123;DHT22;10719;48.130;11.630;2023-07-20T09:41:44;22.50;99.90
21123;DHT22;10719;48.130;11.630;2023-07-20T09:44:10;22.40;99.90
21123;DHT22;10719;48.130;11.630;2023-07-20T09:46:50;22.60;99.90
21123;DHT22;10719;48.130;11.630;2023-07-20T09:49:17;22.60;99.90
21123;DHT22;10719;48.130;11.630;2023-07-20T09:51:44;22.70;99.90
21123;DHT22;10719;48.130;11.630;2023-07-20T09:54:11;22.70;99.90
21123;DHT22;10719;48.130;11.630;2023-07-20T09:56:39;22.70;99.90
21123;DHT22;10719;48.130;11.630;2023-07-20T09:59:06;22.90;99.90
21123;DHT22;10719;48.130;11.630;2023-07-20T10:01:32;23.00;99.90
21123;DHT22;10719;48.130;11.630;2023-07-20T10:04:02;23.10;99.90
21123;DHT22;10719;48.130;11.630;2023-07-20T10:06:29;23.30;99.90
21123;DHT22;10719;48.130;11.630;2023-07-20T10:09:00;23.60;99.90
21123;DHT22;10719;48.130;11.630;2023-07-20T10:11:30;23.20;99.90
21123;DHT22;10719;48.130;11.630;2023-07-20T10:13:58;23.40;99.90
21123;DHT22;10719;48.130;11.630;2023-07-20T10:16:34;24.00;99.90
21123;DHT22;10719;48.130;11.630;2023-07-20T10:19:13;24.10;99.90
21123;DHT22;10719;48.130;11.630;2023-07-20T10:21:48;24.20;99.90
21123;DHT22;10719;48.130;11.630;2023-07-20T10:24:17;24.10;99.90
21123;DHT22;10719;48.130;11.630;2023-07-20T10:26:43;23.90;99.90
21123;DHT22;10719;48.130;11.630;2023-07-20T10:29:09;24.00;99.90
21123;DHT22;10719;48.130;11.630;2023-07-20T10:31:37;23.30;99.90
21123;DHT22;10719;48.130;11.630;2023-07-20T10:34:03;22.90;99.90
21123;DHT22;10719;48.130;11.630;2023-07-20T10:36:29;22.90;99.90
21123;DHT22;10719;48.130;11.630;2023-07-20T10:38:56;23.00;99.90
21123;DHT22;10719;48.130;11.630;2023-07-20T10:41:33;22.80;99.90
21123;DHT22;10719;48.130;11.630;2023-07-20T10:44:04;22.60;99.90
21123;DHT22;10719;48.130;11.630;2023-07-20T10:49:09;22.70;99.90
21123;DHT22;10719;48.130;11.630;2023-07-20T10:56:43;24.20;99.90
21123;DHT22;10719;48.130;11.630;2023-07-20T11:01:46;24.00;99.90
21123;DHT22;10719;48.130;11.630;2023-07-20T11:04:13;23.60;99.90
21123;DHT22;10719;48.130;11.630;2023-07-20T11:06:42;23.90;99.90
21123;DHT22;10719;48.130;11.630;2023-07-20T11:11:46;23.90;99.90
21123;DHT22;10719;48.130;11.630;2023-07-20T11:14:24;24.80;99.90
21123;DHT22;10719;48.130;11.630;2023-07-20T11:16:51;25.50;99.90
21123;DHT22;10719;48.130;11.630;2023-07-20T11:21:46;25.80;99.90
21123;DHT22;10719;48.130;11.630;2023-07-20T11:24:12;25.50;99.90
21123;DHT22;10719;48.130;11.630;2023-07-20T11:26:43;25.00;99.90
21123;DHT22;10719;48.130;11.630;2023-07-20T11:29:09;25.10;99.90
21123;DHT22;10719;48.130;11.630;2023-07-20T11:31:37;25.30;99.90
21123;DHT22;10719;48.130;11.630;2023-07-20T11:34:02;25.60;99.90
21123;DHT22;10719;48.130;11.630;2023-07-20T11:36:28;26.00;99.90
21123;DHT22;10719;48.130;11.630;2023-07-20T11:38:54;26.40;99.90
21123;DHT22;10719;48.130;11.630;2023-07-20T11:41:19;26.50;99.90
21123;DHT22;10719;48.130;11.630;2023-07-20T11:43:45;25.90;99.90
21123;DHT22;10719;48.130;11.630;2023-07-20T11:46:11;25.40;99.90
21123;DHT22;10719;48.130;11.630;2023-07-20T11:48:37;25.10;99.90
21123;DHT22;10719;48.130;11.630;2023-07-20T11:51:02;25.20;99.90
21123;DHT22;10719;48.130;11.630;2023-07-20T11:53:28;24.80;99.90
21123;DHT22;10719;48.130;11.630;2023-07-20T11:55:54;24.70;99.90
21123;DHT22;10719;48.130;11.630;2023-07-20T11:58:21;25.40;99.90
21123;DHT22;10719;48.130;11.630;2023-07-20T12:00:47;26.10;99.90
21123;DHT22;10719;48.130;11.630;2023-07-20T12:03:13;26.90;99.90
21123;DHT22;10719;48.130;11.630;2023-07-20T12:05:39;27.20;99.90
21123;DHT22;10719;48.130;11.630;2023-07-20T12:08:04;27.30;99.90
21123;DHT22;10719;48.130;11.630;2023-07-20T12:10:30;28.10;99.90
21123;DHT22;10719;48.130;11.630;2023-07-20T12:13:02;29.10;99.90
21123;DHT22;10719;48.130;11.630;2023-07-20T12:15:29;29.00;99.90
21123;DHT22;10719;48.130;11.630;2023-07-20T12:18:00;27.80;99.90
21123;DHT22;10719;48.130;11.630;2023-07-20T12:20:38;26.70;99.90
21123;DHT22;10719;48.130;11.630;2023-07-20T12:23:11;26.10;99.90
21123;DHT22;10719;48.130;11.630;2023-07-20T12:25:42;26.60;99.90
21123;DHT22;10719;48.130;11.630;2023-07-20T12:28:18;26.30;99.90
21123;DHT22;10719;48.130;11.630;2023-07-20T12:30:46;25.60;99.90
21123;DHT22;10719;48.130;11.630;2023-07-20T12:33:13;25.80;99.90
21123;DHT22;10719;48.130;11.630;2023-07-20T12:35:41;27.00;99.90
21123;DHT22;10719;48.130;11.630;2023-07-20T12:38:06;28.20;99.90
21123;DHT22;10719;48.130;11.630;2023-07-20T12:40:32;28.80;99.90
21123;DHT22;10719;48.130;11.630;2023-07-20T12:42:58;28.80;99.90
21123;DHT22;10719;48.130;11.630;2023-07-20T12:45:24;28.50;99.90
21123;DHT22;10719;48.130;11.630;2023-07-20T12:47:49;27.80;99.90
21123;DHT22;10719;48.130;11.630;2023-07-20T12:50:15;27.60;99.90
21123;DHT22;10719;48.130;11.630;2023-07-20T12:52:40;27.70;99.90
21123;DHT22;10719;48.130;11.630;2023-07-20T12:55:08;28.20;99.90
21123;DHT22;10719;48.130;11.630;2023-07-20T12:57:34;28.50;99.90
21123;DHT22;10719;48.130;11.630;2023-07-20T13:00:01;28.90;99.90
21123;DHT22;10719;48.130;11.630;2023-07-20T13:02:27;29.00;99.90
21123;DHT22;10719;48.130;11.630;2023-07-20T13:04:52;29.40;99.90
21123;DHT22;10719;48.130;11.630;2023-07-20T13:07:29;29.70;99.90
21123;DHT22;10719;48.130;11.630;2023-07-20T13:09:56;29.00;99.90
21123;DHT22;10719;48.130;11.630;2023-07-20T13:12:21;28.30;99.90
21123;DHT22;10719;48.130;11.630;2023-07-20T13:14:47;28.10;99.90
21123;DHT22;10719;48.130;11.630;2023-07-20T13:17:12;28.00;99.90
21123;DHT22;10719;48.130;11.630;2023-07-20T13:19:38;28.80;99.90
21123;DHT22;10719;48.130;11.630;2023-07-20T13:22:04;30.00;99.90
21123;DHT22;10719;48.130;11.630;2023-07-20T13:24:29;29.80;99.90
21123;DHT22;10719;48.130;11.630;2023-07-20T13:26:55;29.30;99.90
21123;DHT22;10719;48.130;11.630;2023-07-20T13:29:21;29.60;99.90
21123;DHT22;10719;48.130;11.630;2023-07-20T13:31:46;30.30;99.90
21123;DHT22;10719;48.130;11.630;2023-07-20T13:34:12;30.60;99.90
21123;DHT22;10719;48.130;11.630;2023-07-20T13:36:37;30.20;99.90
21123;DHT22;10719;48.130;11.630;2023-07-20T13:39:03;30.10;99.90
21123;DHT22;10719;48.130;11.630;2023-07-20T13:41:30;29.30;99.90
21123;DHT22;10719;48.130;11.630;2023-07-20T13:43:57;27.20;99.90
21123;DHT22;10719;48.130;11.630;2023-07-20T13:46:23;26.30;99.90
21123;DHT22;10719;48.130;11.630;2023-07-20T13:48:49;26.70;99.90
21123;DHT22;10719;48.130;11.630;2023-07-20T13:51:14;27.90;99.90
21123;DHT22;10719;48.130;11.630;2023-07-20T13:53:40;28.30;99.90
21123;DHT22;10719;48.130;11.630;2023-07-20T13:56:06;28.40;99.90
21123;DHT22;10719;48.130;11.630;2023-07-20T13:58:32;28.80;99.90
21123;DHT22;10719;48.130;11.630;2023-07-20T14:00:58;28.80;99.90
21123;DHT22;10719;48.130;11.630;2023-07-20T14:03:23;28.30;99.90
21123;DHT22;10719;48.130;11.630;2023-07-20T14:05:50;28.40;99.90
21123;DHT22;10719;48.130;11.630;2023-07-20T14:08:16;28.40;99.90
21123;DHT22;10719;48.130;11.630;2023-07-20T14:10:41;28.10;99.90
21123;DHT22;10719;48.130;11.630;2023-07-20T14:13:07;28.70;99.90
21123;DHT22;10719;48.130;11.630;2023-07-20T14:15:34;29.80;99.90
21123;DHT22;10719;48.130;11.630;2023-07-20T14:18:00;30.10;99.90
21123;DHT22;10719;48.130;11.630;2023-07-20T14:20:26;30.00;99.90
21123;DHT22;10719;48.130;11.630;2023-07-20T14:22:51;30.20;99.90
21123;DHT22;10719;48.130;11.630;2023-07-20T14:25:17;31.00;99.90
21123;DHT22;10719;48.130;11.630;2023-07-20T14:27:42;31.50;99.90
21123;DHT22;10719;48.130;11.630;2023-07-20T14:30:08;31.20;99.80
21123;DHT22;10719;48.130;11.630;2023-07-20T14:32:34;31.10;99.20
21123;DHT22;10719;48.130;11.630;2023-07-20T14:35:00;31.20;99.90
21123;DHT22;10719;48.130;11.630;2023-07-20T14:37:25;30.90;99.60
21123;DHT22;10719;48.130;11.630;2023-07-20T14:39:51;31.00;99.90
21123;DHT22;10719;48.130;11.630;2023-07-20T14:42:16;31.90;98.80
21123;DHT22;10719;48.130;11.630;2023-07-20T14:44:43;32.20;99.60
21123;DHT22;10719;48.130;11.630;2023-07-20T14:47:08;32.80;97.90
21123;DHT22;10719;48.130;11.630;2023-07-20T14:49:34;33.20;97.60
21123;DHT22;10719;48.130;11.630;2023-07-20T14:52:00;33.40;98.70
21123;DHT22;10719;48.130;11.630;2023-07-20T14:54:25;33.30;97.60
21123;DHT22;10719;48.130;11.630;2023-07-20T14:56:51;33.30;96.50
21123;DHT22;10719;48.130;11.630;2023-07-20T14:59:19;32.30;97.60
21123;DHT22;10719;48.130;11.630;2023-07-20T15:01:45;32.00;98.70
21123;DHT22;10719;48.130;11.630;2023-07-20T15:04:16;32.30;97.90
21123;DHT22;10719;48.130;11.630;2023-07-20T15:06:41;32.40;98.00
21123;DHT22;10719;48.130;11.630;2023-07-20T15:09:07;33.00;97.30
21123;DHT22;10719;48.130;11.630;2023-07-20T15:11:33;31.80;98.60
21123;DHT22;10719;48.130;11.630;2023-07-20T15:13:59;32.10;98.40
21123;DHT22;10719;48.130;11.630;2023-07-20T15:16:25;31.60;99.20
21123;DHT22;10719;48.130;11.630;2023-07-20T15:18:51;31.40;99.10
21123;DHT22;10719;48.130;11.630;2023-07-20T15:21:16;31.10;98.40
21123;DHT22;10719;48.130;11.630;2023-07-20T15:23:45;31.60;98.70
21123;DHT22;10719;48.130;11.630;2023-07-20T15:26:11;30.70;98.40
21123;DHT22;10719;48.130;11.630;2023-07-20T15:28:37;31.10;98.20
21123;DHT22;10719;48.130;11.630;2023-07-20T15:31:04;31.00;98.60
21123;DHT22;10719;48.130;11.630;2023-07-20T15:33:30;31.80;98.80